^^
Saratoga-Weather Station Historical Data
Daily Summary for June 17, 2021 Units:  Metric    English   Both
Daily Weekly Monthly Yearly Custom
  High: Low: Average:
Temperature: 16.7 °C 9 °C 12.1 °C
Dew Point: 11.2 °C 7.7 °C 9.1 °C
Humidity: 94% 61% 83%
Wind Speed: 20.9km/h 0km/h 3.2km/h
Wind Gust: 22.5km/h - -
Wind- - SW
Pressure: 1004.4 hPa 1000.3 hPa -
Precipitation: 7.1 mm    
Historical Graphs
 
 
Tabular Data for June 17, 2021
Time Temperature Dew Point Pressure Wind Wind Speed Wind Gust Humidity Rainfall Rate (Hourly) solar
00:04 9.3 °C 7.9 °C 1004.1 hPa NNE 1.4 km/h 6.4 km/h 91% 0.0 mm 0 W/m2
00:09 9.3 °C 7.9 °C 1004.1 hPa NNE 1.4 km/h 1.6 km/h 91% 0.0 mm 0 W/m2
00:14 9.3 °C 7.9 °C 1004.1 hPa Calm   6.4 km/h 91% 0.0 mm 0 W/m2
00:19 9.3 °C 7.9 °C 1004.1 hPa Calm   6.4 km/h 91% 0.0 mm 0 W/m2
00:24 9.3 °C 7.9 °C 1004.1 hPa Calm   1.6 km/h 91% 0.0 mm 0 W/m2
00:29 9.3 °C 7.9 °C 1004.4 hPa Calm   6.4 km/h 91% 0.0 mm 0 W/m2
00:34 9.3 °C 7.9 °C 1004.4 hPa NNW 4.7 km/h 4.8 km/h 91% 0.0 mm 0 W/m2
00:39 9.3 °C 7.9 °C 1004.4 hPa WNW 1.4 km/h 6.4 km/h 91% 0.0 mm 0 W/m2
00:44 9.2 °C 7.8 °C 1004.4 hPa Calm   3.2 km/h 91% 0.0 mm 0 W/m2
00:49 9.2 °C 7.8 °C 1004.4 hPa Calm   3.2 km/h 91% 0.0 mm 0 W/m2
00:54 9.1 °C 7.7 °C 1004.4 hPa Calm   3.2 km/h 91% 0.0 mm 0 W/m2
00:59 9.1 °C 7.9 °C 1004.4 hPa Calm   3.2 km/h 92% 0.0 mm 0 W/m2
01:04 9.1 °C 7.9 °C 1004.4 hPa WSW 1.4 km/h 6.4 km/h 92% 0.0 mm 0 W/m2
01:09 9.1 °C 7.9 °C 1004.4 hPa South 3.2 km/h 4.8 km/h 92% 0.0 mm 0 W/m2
01:14 9.1 °C 7.9 °C 1004.4 hPa NNE 1.4 km/h 4.8 km/h 92% 0.0 mm 0 W/m2
01:19 9.2 °C 8 °C 1004.4 hPa NNE 1.4 km/h 3.2 km/h 92% 0.0 mm 0 W/m2
01:24 9.2 °C 8 °C 1004.4 hPa Calm     92% 0.0 mm 0 W/m2
01:29 9.1 °C 7.9 °C 1004.1 hPa North 1.4 km/h 3.2 km/h 92% 0.0 mm 0 W/m2
01:34 9.1 °C 7.9 °C 1004.1 hPa NE 1.4 km/h 1.6 km/h 92% 0.0 mm 0 W/m2
01:39 9.1 °C 7.9 °C 1004.1 hPa Calm   4.8 km/h 92% 0.0 mm 0 W/m2
01:44 9.1 °C 7.9 °C 1004.1 hPa NNE 1.4 km/h 1.6 km/h 92% 0.0 mm 0 W/m2
01:49 9 °C 7.8 °C 1004.1 hPa Calm   1.6 km/h 92% 0.0 mm 0 W/m2
01:54 9.1 °C 7.9 °C 1004.1 hPa Calm   4.8 km/h 92% 0.0 mm 0 W/m2
01:59 9.1 °C 7.9 °C 1004.1 hPa North 1.4 km/h 3.2 km/h 92% 0.0 mm 0 W/m2
02:04 9.1 °C 7.9 °C 1004.1 hPa East 3.2 km/h 3.2 km/h 92% 0.0 mm 0 W/m2
02:09 9.1 °C 7.9 °C 1004.1 hPa NW 4.7 km/h 6.4 km/h 92% 0.0 mm 0 W/m2
02:14 9.2 °C 8 °C 1004.1 hPa Calm   1.6 km/h 92% 0.0 mm 0 W/m2
02:19 9.2 °C 8.1 °C 1004.1 hPa South 3.2 km/h 4.8 km/h 93% 0.0 mm 0 W/m2
02:24 9.2 °C 8.1 °C 1004.1 hPa Calm   1.6 km/h 93% 0.0 mm 0 W/m2
02:29 9.3 °C 8.2 °C 1004.1 hPa ESE 1.4 km/h 3.2 km/h 93% 0.0 mm 0 W/m2
02:34 9.3 °C 8.2 °C 1004.1 hPa Calm   3.2 km/h 93% 0.0 mm 0 W/m2
02:39 9.3 °C 8.2 °C 1004.1 hPa Calm   1.6 km/h 93% 0.0 mm 0 W/m2
02:44 9.3 °C 8.2 °C 1004.1 hPa Calm   3.2 km/h 93% 0.0 mm 0 W/m2
02:49 9.3 °C 8.2 °C 1003.7 hPa NW 1.4 km/h 4.8 km/h 93% 0.0 mm 0 W/m2
02:54 9.3 °C 8.2 °C 1003.7 hPa Calm   4.8 km/h 93% 0.0 mm 0 W/m2
02:59 9.3 °C 8.2 °C 1004.1 hPa NNW 3.2 km/h 6.4 km/h 93% 0.0 mm 0 W/m2
03:05 9.4 °C 8.3 °C 1003.7 hPa NW 1.4 km/h 4.8 km/h 93% 0.0 mm 0 W/m2
03:10 9.4 °C 8.3 °C 1003.7 hPa Calm   3.2 km/h 93% 0.0 mm 0 W/m2
03:15 9.4 °C 8.3 °C 1003.7 hPa NW 1.4 km/h 6.4 km/h 93% 0.0 mm 0 W/m2
03:20 9.4 °C 8.3 °C 1003.7 hPa North 3.2 km/h 6.4 km/h 93% 0.0 mm 0 W/m2
03:25 9.4 °C 8.3 °C 1003.7 hPa Calm   4.8 km/h 93% 0.0 mm 0 W/m2
03:30 9.4 °C 8.3 °C 1003.7 hPa Calm   6.4 km/h 93% 0.0 mm 0 W/m2
03:35 9.4 °C 8.3 °C 1003.7 hPa NW 1.4 km/h 4.8 km/h 93% 0.0 mm 0 W/m2
03:40 9.3 °C 8.2 °C 1003.7 hPa NNE 1.4 km/h 6.4 km/h 93% 0.0 mm 0 W/m2
03:45 9.3 °C 8.2 °C 1003.7 hPa NNE 1.4 km/h 1.6 km/h 93% 0.0 mm 0 W/m2
03:50 9.4 °C 8.3 °C 1003.7 hPa Calm   1.6 km/h 93% 0.0 mm 0 W/m2
03:55 9.4 °C 8.3 °C 1003.7 hPa North 1.4 km/h 4.8 km/h 93% 0.0 mm 0 W/m2
04:00 9.4 °C 8.3 °C 1003.7 hPa NNW 1.4 km/h 3.2 km/h 93% 0.0 mm 0 W/m2
04:05 9.4 °C 8.3 °C 1003.7 hPa Calm   3.2 km/h 93% 0.0 mm 0 W/m2
04:10 9.5 °C 8.4 °C 1003.7 hPa NW 6.4 km/h 11.3 km/h 93% 0.0 mm 0 W/m2
04:15 9.5 °C 8.4 °C 1003.7 hPa Calm   6.4 km/h 93% 0.0 mm 0 W/m2
04:20 9.6 °C 8.5 °C 1003.7 hPa Calm   4.8 km/h 93% 0.0 mm 0 W/m2
04:25 9.6 °C 8.5 °C 1003.4 hPa ENE 1.4 km/h 6.4 km/h 93% 0.0 mm 0 W/m2
04:30 9.6 °C 8.5 °C 1003.4 hPa NE 3.2 km/h 4.8 km/h 93% 0.0 mm 0 W/m2
04:35 9.6 °C 8.5 °C 1003.4 hPa NE 1.4 km/h 3.2 km/h 93% 0.0 mm 0 W/m2
04:40 9.6 °C 8.5 °C 1003.4 hPa NE 1.4 km/h 3.2 km/h 93% 0.0 mm 0 W/m2
04:45 9.7 °C 8.6 °C 1003.4 hPa Calm   1.6 km/h 93% 0.5 mm 0 W/m2
04:50 9.7 °C 8.6 °C 1003.4 hPa North 4.7 km/h 4.8 km/h 93% 0.5 mm 0 W/m2
04:55 9.6 °C 8.5 °C 1003.4 hPa NW 3.2 km/h 3.2 km/h 93% 0.5 mm 0 W/m2
05:00 9.6 °C 8.5 °C 1003.4 hPa Calm   6.4 km/h 93% 0.5 mm 0 W/m2
05:05 9.6 °C 8.5 °C 1003.4 hPa West 1.4 km/h 8 km/h 93% 0.5 mm 0 W/m2
05:10 9.6 °C 8.5 °C 1003.4 hPa Calm   4.8 km/h 93% 0.5 mm 0 W/m2
05:15 9.6 °C 8.5 °C 1003.4 hPa West 1.4 km/h 9.7 km/h 93% 0.5 mm 0 W/m2
05:20 9.6 °C 8.5 °C 1003.4 hPa Calm   4.8 km/h 93% 0.5 mm 0 W/m2
05:25 9.7 °C 8.6 °C 1003.4 hPa North 1.4 km/h 9.7 km/h 93% 0.5 mm 0 W/m2
05:30 9.7 °C 8.6 °C 1003.4 hPa East 3.2 km/h 9.7 km/h 93% 0.5 mm 0 W/m2
05:35 9.7 °C 8.6 °C 1003.4 hPa NE 4.7 km/h 4.8 km/h 93% 0.5 mm 0 W/m2
05:40 9.7 °C 8.6 °C 1003.4 hPa WNW 9.7 km/h 11.3 km/h 93% 0.5 mm 0 W/m2
05:45 9.7 °C 8.6 °C 1003.4 hPa WSW 1.4 km/h 3.2 km/h 93% 0.2 mm 0 W/m2
05:50 9.6 °C 8.5 °C 1003.4 hPa NNE 1.4 km/h 3.2 km/h 93% 0.5 mm 0 W/m2
05:55 9.6 °C 8.5 °C 1003.4 hPa NNE 1.4 km/h 1.6 km/h 93% 0.5 mm 0 W/m2
06:00 9.6 °C 8.5 °C 1003.4 hPa NNE 3.2 km/h 4.8 km/h 93% 0.2 mm 0 W/m2
06:05 9.6 °C 8.5 °C 1003.4 hPa WNW 1.4 km/h 3.2 km/h 93% 0.2 mm 0 W/m2
06:10 9.6 °C 8.5 °C 1003.4 hPa NW 4.7 km/h 6.4 km/h 93% 0.2 mm 5 W/m2
06:15 9.6 °C 8.5 °C 1003.4 hPa WNW 1.4 km/h 6.4 km/h 93% 0.2 mm 7 W/m2
06:20 9.7 °C 8.6 °C 1003.4 hPa South 1.4 km/h 4.8 km/h 93% 0.2 mm 9 W/m2
06:25 9.7 °C 8.6 °C 1003.4 hPa West 3.2 km/h 4.8 km/h 93% 0.2 mm 14 W/m2
06:30 9.7 °C 8.6 °C 1003.4 hPa NW 1.4 km/h 4.8 km/h 93% 0.2 mm 12 W/m2
06:35 9.7 °C 8.6 °C 1003.4 hPa NW 3.2 km/h 9.7 km/h 93% 0.2 mm 12 W/m2
06:40 9.7 °C 8.6 °C 1003.7 hPa West 1.4 km/h 8 km/h 93% 0.2 mm 16 W/m2
06:45 9.7 °C 8.8 °C 1003.7 hPa Calm   3.2 km/h 94% 0.2 mm 21 W/m2
06:50 9.7 °C 8.6 °C 1003.7 hPa SSW 1.4 km/h 8 km/h 93% 0.0 mm 21 W/m2
06:55 9.8 °C 8.7 °C 1003.7 hPa WNW 3.2 km/h 8 km/h 93% 0.0 mm 28 W/m2
07:00 9.8 °C 8.7 °C 1003.7 hPa West 6.4 km/h 12.9 km/h 93% 0.0 mm 32 W/m2
07:05 9.8 °C 8.7 °C 1003.7 hPa Calm   6.4 km/h 93% 0.0 mm 65 W/m2
07:10 9.8 °C 8.7 °C 1003.7 hPa SSE 1.4 km/h 12.9 km/h 93% 0.0 mm 84 W/m2
07:15 9.9 °C 8.8 °C 1003.7 hPa Calm   3.2 km/h 93% 0.0 mm 47 W/m2
07:20 9.9 °C 8.8 °C 1003.7 hPa NNE 1.4 km/h 6.4 km/h 93% 0.0 mm 49 W/m2
07:26 10 °C 8.9 °C 1003.7 hPa Calm   4.8 km/h 93% 0.0 mm 44 W/m2
07:31 10 °C 8.9 °C 1004.1 hPa ESE 3.2 km/h 8 km/h 93% 0.0 mm 44 W/m2
07:36 10 °C 8.9 °C 1004.1 hPa WSW 3.2 km/h 4.8 km/h 93% 0.0 mm 86 W/m2
07:41 10.1 °C 9 °C 1004.1 hPa West 1.4 km/h 8 km/h 93% 0.0 mm 70 W/m2
07:46 10.2 °C 9 °C 1004.1 hPa NNW 3.2 km/h 3.2 km/h 92% 0.0 mm 83 W/m2
07:51 10.2 °C 9 °C 1004.1 hPa WSW 4.7 km/h 8 km/h 92% 0.0 mm 60 W/m2
07:56 10.2 °C 9 °C 1004.1 hPa WSW 6.4 km/h 12.9 km/h 92% 0.0 mm 77 W/m2
08:01 10.3 °C 9.1 °C 1004.1 hPa WNW 4.7 km/h 12.9 km/h 92% 0.0 mm 156 W/m2
08:06 10.4 °C 9.2 °C 1004.1 hPa West 4.7 km/h 9.7 km/h 92% 0.0 mm 77 W/m2
08:11 10.4 °C 9.2 °C 1004.1 hPa WNW 7.9 km/h 16.1 km/h 92% 0.0 mm 121 W/m2
08:16 10.5 °C 9.1 °C 1004.1 hPa NW 4.7 km/h 14.5 km/h 91% 0.0 mm 172 W/m2
08:21 10.7 °C 9.3 °C 1004.1 hPa West 9.7 km/h 12.9 km/h 91% 0.0 mm 158 W/m2
08:26 10.7 °C 9.1 °C 1004.1 hPa Calm   14.5 km/h 90% 0.0 mm 134 W/m2
08:31 10.8 °C 9.2 °C 1004.1 hPa NW 3.2 km/h 8 km/h 90% 0.0 mm 132 W/m2
08:36 10.8 °C 9.2 °C 1004.1 hPa SW 1.4 km/h 8 km/h 90% 0.0 mm 160 W/m2
08:41 10.8 °C 9.2 °C 1004.1 hPa West 3.2 km/h 9.7 km/h 90% 0.0 mm 188 W/m2
08:46 10.9 °C 9.3 °C 1004.1 hPa WSW 6.4 km/h 6.4 km/h 90% 0.0 mm 234 W/m2
08:51 11.1 °C 9.5 °C 1004.1 hPa WNW 3.2 km/h 4.8 km/h 90% 0.0 mm 403 W/m2
08:56 11.3 °C 9.6 °C 1004.1 hPa WNW 3.2 km/h 3.2 km/h 89% 0.0 mm 475 W/m2
09:01 11.6 °C 9.8 °C 1004.1 hPa NW 4.7 km/h 6.4 km/h 89% 0.0 mm 102 W/m2
09:06 11.4 °C 9.3 °C 1004.1 hPa Calm   4.8 km/h 87% 0.0 mm 76 W/m2
09:11 11.4 °C 9.5 °C 1004.1 hPa Calm   3.2 km/h 88% 0.0 mm 155 W/m2
09:16 11.4 °C 9.5 °C 1004.1 hPa West 3.2 km/h 3.2 km/h 88% 0.0 mm 104 W/m2
09:21 11.3 °C 9.2 °C 1004.1 hPa NE 3.2 km/h 6.4 km/h 87% 0.0 mm 98 W/m2
09:26 11.3 °C 9.4 °C 1004.1 hPa SSW 4.7 km/h 4.8 km/h 88% 0.0 mm 111 W/m2
09:31 11.3 °C 9.2 °C 1004.1 hPa WSW 3.2 km/h 12.9 km/h 87% 0.0 mm 519 W/m2
09:36 11.4 °C 9.5 °C 1004.1 hPa WNW 1.4 km/h 6.4 km/h 88% 0.0 mm 127 W/m2
09:41 11.4 °C 9.3 °C 1004.1 hPa WNW 3.2 km/h 12.9 km/h 87% 0.0 mm 568 W/m2
09:46 11.6 °C 9.5 °C 1004.1 hPa NW 7.9 km/h 11.3 km/h 87% 0.0 mm 225 W/m2
09:51 11.7 °C 9.4 °C 1004.1 hPa WNW 1.4 km/h 4.8 km/h 86% 0.0 mm 100 W/m2
09:56 11.6 °C 9.3 °C 1004.1 hPa Calm   9.7 km/h 86% 0.0 mm 98 W/m2
10:01 11.6 °C 9.3 °C 1004.1 hPa West 9.7 km/h 11.3 km/h 86% 0.0 mm 181 W/m2
10:06 11.7 °C 9.6 °C 1004.1 hPa West 4.7 km/h 6.4 km/h 87% 0.0 mm 253 W/m2
10:11 11.9 °C 9.6 °C 1004.1 hPa Calm   4.8 km/h 86% 0.0 mm 710 W/m2
10:16 12.3 °C 9.9 °C 1004.1 hPa SE 3.2 km/h 6.4 km/h 85% 0.0 mm 756 W/m2
10:21 12.6 °C 9.6 °C 1004.1 hPa South 1.4 km/h 14.5 km/h 82% 0.0 mm 299 W/m2
10:26 12.8 °C 9.8 °C 1003.7 hPa NNW 1.4 km/h 6.4 km/h 82% 0.0 mm 297 W/m2
10:31 13.1 °C 9.7 °C 1004.1 hPa NNW 7.9 km/h 14.5 km/h 80% 0.0 mm 796 W/m2
10:36 13.4 °C 10.2 °C 1003.7 hPa WNW 6.4 km/h 6.4 km/h 81% 0.0 mm 749 W/m2
10:41 13.3 °C 9.5 °C 1003.7 hPa NNE 4.7 km/h 14.5 km/h 78% 0.0 mm 178 W/m2
10:46 12.9 °C 9.3 °C 1003.7 hPa WNW 6.4 km/h 8 km/h 79% 0.0 mm 176 W/m2
10:51 12.9 °C 9.5 °C 1003.7 hPa WNW 3.2 km/h 12.9 km/h 80% 0.0 mm 756 W/m2
10:56 13.2 °C 9.8 °C 1003.7 hPa WSW 9.7 km/h 9.7 km/h 80% 0.0 mm 819 W/m2
11:01 13.3 °C 9.5 °C 1003.7 hPa SW 3.2 km/h 12.9 km/h 78% 0.0 mm 169 W/m2
11:06 13.3 °C 9.4 °C 1003.7 hPa West 4.7 km/h 9.7 km/h 77% 0.0 mm 821 W/m2
11:11 13.5 °C 9.4 °C 1003.7 hPa West 1.4 km/h 17.7 km/h 76% 0.0 mm 900 W/m2
11:16 13.6 °C 9.3 °C 1003.7 hPa South 3.2 km/h 12.9 km/h 75% 0.0 mm 195 W/m2
11:21 13.4 °C 8.9 °C 1003.7 hPa NW 3.2 km/h 12.9 km/h 74% 0.0 mm 236 W/m2
11:26 13.3 °C 9 °C 1003.7 hPa ESE 4.7 km/h 4.8 km/h 75% 0.0 mm 141 W/m2
11:31 13.2 °C 8.7 °C 1003.7 hPa West 4.7 km/h 12.9 km/h 74% 0.0 mm 236 W/m2
11:36 13.2 °C 8.7 °C 1003.7 hPa NW 13 km/h 12.9 km/h 74% 0.0 mm 949 W/m2
11:41 13.5 °C 9 °C 1003.7 hPa West 6.4 km/h 12.9 km/h 74% 0.0 mm 1021 W/m2
11:46 13.8 °C 8.8 °C 1003.4 hPa West 9.7 km/h 12.9 km/h 72% 0.0 mm 323 W/m2
11:51 13.9 °C 8.5 °C 1003.7 hPa WNW 7.9 km/h 22.5 km/h 70% 0.0 mm 287 W/m2
11:56 13.8 °C 8.8 °C 1003.7 hPa North 6.4 km/h 11.3 km/h 72% 0.0 mm 308 W/m2
12:01 13.8 °C 9 °C 1003.4 hPa NW 4.7 km/h 22.5 km/h 73% 0.0 mm 192 W/m2
12:06 13.8 °C 8.8 °C 1003.4 hPa North 6.4 km/h 12.9 km/h 72% 0.0 mm 218 W/m2
12:11 13.9 °C 9.1 °C 1003.4 hPa West 3.2 km/h 6.4 km/h 73% 0.0 mm 926 W/m2
12:16 14.2 °C 9.2 °C 1003.4 hPa WSW 3.2 km/h 11.3 km/h 72% 0.0 mm 192 W/m2
12:21 14.2 °C 8.8 °C 1003.4 hPa NW 6.4 km/h 12.9 km/h 70% 0.0 mm 357 W/m2
12:26 14.4 °C 9.2 °C 1003.0 hPa SW 4.7 km/h 6.4 km/h 71% 0.0 mm 1109 W/m2
12:31 14.4 °C 8.8 °C 1003.0 hPa NW 6.4 km/h 9.7 km/h 69% 0.0 mm 415 W/m2
12:36 14.3 °C 8.7 °C 1003.0 hPa Calm   8 km/h 69% 0.0 mm 318 W/m2
12:41 14.4 °C 8.8 °C 1003.0 hPa West 9.7 km/h 9.7 km/h 69% 0.0 mm 265 W/m2
12:46 14.3 °C 8.9 °C 1003.0 hPa SW 9.7 km/h 14.5 km/h 70% 0.0 mm 255 W/m2
12:51 14.3 °C 8.7 °C 1003.0 hPa SW 4.7 km/h 9.7 km/h 69% 0.0 mm 206 W/m2
12:56 14.3 °C 9.1 °C 1002.7 hPa ESE 12.9 km/h 12.9 km/h 71% 0.0 mm 294 W/m2
13:01 14.5 °C 9.1 °C 1002.7 hPa WNW 1.4 km/h 9.7 km/h 70% 0.0 mm 279 W/m2
13:06 14.5 °C 8.7 °C 1002.7 hPa West 3.2 km/h 11.3 km/h 68% 0.0 mm 294 W/m2
13:11 14.4 °C 8.8 °C 1002.7 hPa NNW 4.7 km/h 14.5 km/h 69% 0.0 mm 255 W/m2
13:16 14.6 °C 8.8 °C 1002.7 hPa West 11.1 km/h 12.9 km/h 68% 0.0 mm 745 W/m2
13:21 14.8 °C 8.5 °C 1002.7 hPa NW 9.7 km/h 14.5 km/h 66% 0.0 mm 415 W/m2
13:26 15 °C 8.5 °C 1002.4 hPa NNW 13 km/h 12.9 km/h 65% 0.0 mm 415 W/m2
13:31 15.2 °C 8.9 °C 1002.4 hPa WSW 3.2 km/h 8 km/h 66% 0.0 mm 415 W/m2
13:36 15.4 °C 9.1 °C 1002.4 hPa SW 3.2 km/h 6.4 km/h 66% 0.0 mm 422 W/m2
13:41 15.6 °C 9 °C 1002.0 hPa North 4.7 km/h 4.8 km/h 65% 0.0 mm 332 W/m2
13:46 15.6 °C 8.8 °C 1002.4 hPa ENE 4.7 km/h 20.9 km/h 64% 0.0 mm 353 W/m2
13:51 15.4 °C 8.9 °C 1002.0 hPa WSW 7.9 km/h 12.9 km/h 65% 0.0 mm 450 W/m2
13:56 15.4 °C 8.9 °C 1002.0 hPa ENE 1.4 km/h 20.9 km/h 65% 0.0 mm 362 W/m2
14:01 15.3 °C 8.8 °C 1002.0 hPa NNW 3.2 km/h 8 km/h 65% 0.0 mm 211 W/m2
14:06 15.2 °C 9.1 °C 1002.0 hPa ENE 4.7 km/h 11.3 km/h 67% 0.0 mm 183 W/m2
14:11 15.2 °C 9.8 °C 1002.0 hPa Calm   4.8 km/h 70% 0.0 mm 422 W/m2
14:16 15.3 °C 9.9 °C 1002.0 hPa WNW 4.7 km/h 6.4 km/h 70% 0.0 mm 417 W/m2
14:21 15.3 °C 9.6 °C 1001.7 hPa WNW 11.3 km/h 11.3 km/h 69% 0.0 mm 427 W/m2
14:26 15.4 °C 9.5 °C 1001.7 hPa SSW 6.4 km/h 9.7 km/h 68% 0.0 mm 499 W/m2
14:31 15.6 °C 9.5 °C 1001.7 hPa WSW 4.7 km/h 4.8 km/h 67% 0.0 mm 540 W/m2
14:36 16 °C 9.7 °C 1001.7 hPa West 6.4 km/h 11.3 km/h 66% 0.0 mm 940 W/m2
14:41 16.1 °C 9.3 °C 1001.7 hPa West 11.1 km/h 17.7 km/h 64% 0.0 mm 236 W/m2
14:46 15.7 °C 9.1 °C 1001.7 hPa NW 6.4 km/h 17.7 km/h 65% 0.0 mm 320 W/m2
14:51 15.6 °C 9.7 °C 1001.7 hPa NW 3.2 km/h 6.4 km/h 68% 0.0 mm 538 W/m2
14:56 15.7 °C 9.8 °C 1001.4 hPa WNW 3.2 km/h 14.5 km/h 68% 0.0 mm 636 W/m2
15:01 15.8 °C 9.7 °C 1001.4 hPa WNW 3.2 km/h 9.7 km/h 67% 0.0 mm 251 W/m2
15:06 15.9 °C 10 °C 1001.4 hPa West 9.7 km/h 14.5 km/h 68% 0.0 mm 339 W/m2
15:11 16 °C 9.9 °C 1001.4 hPa NNW 4.7 km/h 8 km/h 67% 0.0 mm 527 W/m2
15:16 16.1 °C 9.5 °C 1001.4 hPa ENE 4.7 km/h 19.3 km/h 65% 0.0 mm 902 W/m2
15:21 16.4 °C 9.8 °C 1001.0 hPa WNW 7.9 km/h 12.9 km/h 65% 0.0 mm 942 W/m2
15:26 16.7 °C 10.1 °C 1001.0 hPa WSW 1.4 km/h 19.3 km/h 65% 0.0 mm 178 W/m2
15:31 16.7 °C 9.1 °C 1001.0 hPa ENE 3.2 km/h 8 km/h 61% 0.0 mm 185 W/m2
15:36 16.5 °C 9.2 °C 1001.0 hPa East 3.2 km/h 9.7 km/h 62% 0.0 mm 309 W/m2
15:41 16.4 °C 9.1 °C 1000.7 hPa NNE 1.4 km/h 6.4 km/h 62% 0.0 mm 160 W/m2
15:46 16.2 °C 8.7 °C 1001.0 hPa WNW 3.2 km/h 8 km/h 61% 0.0 mm 329 W/m2
15:52 16.3 °C 9.2 °C 1000.7 hPa WNW 7.9 km/h 11.3 km/h 63% 0.0 mm 241 W/m2
15:57 16.3 °C 9 °C 1000.7 hPa WSW 6.4 km/h 12.9 km/h 62% 0.0 mm 130 W/m2
16:02 16.2 °C 9.1 °C 1000.7 hPa WNW 3.2 km/h 4.8 km/h 63% 0.0 mm 116 W/m2
16:07 16.1 °C 9.3 °C 1000.7 hPa West 4.7 km/h 12.9 km/h 64% 0.0 mm 77 W/m2
16:12 15.8 °C 9.2 °C 1000.7 hPa West 1.4 km/h 6.4 km/h 65% 0.0 mm 56 W/m2
16:17 15.5 °C 9.8 °C 1001.0 hPa NNW 20.9 km/h 20.9 km/h 69% 0.0 mm 74 W/m2
16:22 15 °C 9.8 °C 1001.0 hPa West 9.7 km/h 16.1 km/h 71% 0.0 mm 171 W/m2
16:27 14.6 °C 9.4 °C 1001.0 hPa NW 11.1 km/h 11.3 km/h 71% 0.0 mm 373 W/m2
16:32 14.4 °C 9.6 °C 1001.0 hPa WNW 14.3 km/h 19.3 km/h 73% 0.0 mm 362 W/m2
16:37 14.3 °C 9.7 °C 1001.4 hPa WNW 13 km/h 12.9 km/h 74% 0.0 mm 213 W/m2
16:42 14.2 °C 9.8 °C 1001.4 hPa West 1.4 km/h 19.3 km/h 75% 0.0 mm 188 W/m2
16:47 14.1 °C 10.1 °C 1001.4 hPa WNW 3.2 km/h 6.4 km/h 77% 0.0 mm 204 W/m2
16:52 13.8 °C 10 °C 1001.4 hPa NW 4.7 km/h 14.5 km/h 78% 0.0 mm 255 W/m2
16:57 13.6 °C 10.2 °C 1001.4 hPa WNW 4.7 km/h 9.7 km/h 80% 0.0 mm 206 W/m2
17:02 13.5 °C 10.3 °C 1001.4 hPa WNW 7.9 km/h 11.3 km/h 81% 0.0 mm 244 W/m2
17:07 13.5 °C 10.7 °C 1001.4 hPa NW 6.4 km/h 6.4 km/h 83% 0.0 mm 255 W/m2
17:12 13.6 °C 10.9 °C 1001.4 hPa WNW 4.7 km/h 8 km/h 84% 0.0 mm 251 W/m2
17:17 13.7 °C 11.2 °C 1001.4 hPa WNW 4.7 km/h 4.8 km/h 85% 0.0 mm 526 W/m2
17:22 13.9 °C 11.2 °C 1001.0 hPa NNW 3.2 km/h 11.3 km/h 84% 0.0 mm 308 W/m2
17:27 14 °C 11.2 °C 1001.0 hPa NW 7.9 km/h 16.1 km/h 83% 0.0 mm 287 W/m2
17:32 14.1 °C 9.5 °C 1000.7 hPa WSW 3.2 km/h 11.3 km/h 74% 0.0 mm 246 W/m2
17:37 14.1 °C 9.5 °C 1000.7 hPa Calm   16.1 km/h 74% 0.0 mm 204 W/m2
17:42 14.2 °C 9.8 °C 1000.3 hPa NE 1.4 km/h 8 km/h 75% 0.0 mm 285 W/m2
17:47 14.6 °C 10.4 °C 1000.7 hPa WNW 1.4 km/h 6.4 km/h 76% 0.0 mm 596 W/m2
17:52 14.8 °C 10.2 °C 1000.7 hPa NW 6.4 km/h 11.3 km/h 74% 0.0 mm 262 W/m2
17:57 14.6 °C 9.6 °C 1000.7 hPa West 6.4 km/h 12.9 km/h 72% 0.0 mm 114 W/m2
18:02 14.3 °C 9.7 °C 1000.7 hPa WNW 1.4 km/h 6.4 km/h 74% 0.0 mm 153 W/m2
18:07 14.5 °C 9.9 °C 1000.7 hPa NW 3.2 km/h 14.5 km/h 74% 0.0 mm 540 W/m2
18:12 14.8 °C 10 °C 1000.7 hPa West 13 km/h 12.9 km/h 73% 0.0 mm 127 W/m2
18:17 15 °C 10 °C 1000.7 hPa Calm   4.8 km/h 72% 0.0 mm 227 W/m2
18:22 14.9 °C 10.3 °C 1000.7 hPa SSW 3.2 km/h 6.4 km/h 74% 0.0 mm 135 W/m2
18:27 14.9 °C 9.9 °C 1000.7 hPa West 4.7 km/h 9.7 km/h 72% 0.0 mm 455 W/m2
18:32 14.9 °C 10.1 °C 1000.3 hPa Calm   8 km/h 73% 0.0 mm 118 W/m2
18:37 14.8 °C 10.2 °C 1000.7 hPa WNW 3.2 km/h 8 km/h 74% 0.0 mm 216 W/m2
18:42 14.8 °C 10 °C 1000.3 hPa Calm   6.4 km/h 73% 0.0 mm 408 W/m2
18:47 15.1 °C 10.1 °C 1000.3 hPa NW 1.4 km/h 3.2 km/h 72% 0.0 mm 322 W/m2
18:52 15.2 °C 9.8 °C 1000.3 hPa SW 4.7 km/h 12.9 km/h 70% 0.0 mm 257 W/m2
18:57 15.1 °C 9.9 °C 1000.3 hPa WSW 1.4 km/h 3.2 km/h 71% 0.0 mm 156 W/m2
19:02 14.9 °C 9.9 °C 1000.3 hPa Calm   6.4 km/h 72% 0.0 mm 70 W/m2
19:07 14.8 °C 9.8 °C 1000.3 hPa Calm   1.6 km/h 72% 0.0 mm 260 W/m2
19:12 15.1 °C 10.1 °C 1000.3 hPa WSW 3.2 km/h 3.2 km/h 72% 0.0 mm 236 W/m2
19:17 15.3 °C 10.3 °C 1000.3 hPa NW 1.4 km/h 4.8 km/h 72% 0.0 mm 246 W/m2
19:22 15.6 °C 9.9 °C 1000.3 hPa WNW 3.2 km/h 6.4 km/h 69% 0.0 mm 258 W/m2
19:27 15.7 °C 9.8 °C 1000.3 hPa WNW 1.4 km/h 9.7 km/h 68% 0.0 mm 264 W/m2
19:32 15.7 °C 10 °C 1000.3 hPa West 4.7 km/h 8 km/h 69% 0.0 mm 227 W/m2
19:37 15.8 °C 10.1 °C 1000.3 hPa West 1.4 km/h 4.8 km/h 69% 0.0 mm 246 W/m2
19:42 15.5 °C 9.8 °C 1000.3 hPa East 9.7 km/h 9.7 km/h 69% 0.0 mm 49 W/m2
19:47 15.1 °C 9.9 °C 1000.3 hPa NW 3.2 km/h 12.9 km/h 71% 0.0 mm 46 W/m2
19:52 14.8 °C 10 °C 1000.7 hPa Calm   3.2 km/h 73% 0.0 mm 42 W/m2
19:57 14.6 °C 9.8 °C 1000.7 hPa NNW 1.4 km/h 11.3 km/h 73% 0.0 mm 63 W/m2
20:02 14.5 °C 9.9 °C 1000.7 hPa West 3.2 km/h 4.8 km/h 74% 0.0 mm 56 W/m2
20:07 14.3 °C 9.9 °C 1000.7 hPa WNW 1.4 km/h 1.6 km/h 75% 0.0 mm 23 W/m2
20:12 14.3 °C 9.9 °C 1000.7 hPa SSW 1.4 km/h 4.8 km/h 75% 0.0 mm 16 W/m2
20:17 14.2 °C 10 °C 1000.7 hPa Calm   3.2 km/h 76% 0.0 mm 16 W/m2
20:22 14.1 °C 10.1 °C 1000.7 hPa Calm   3.2 km/h 77% 0.0 mm 21 W/m2
20:27 13.9 °C 10.1 °C 1000.7 hPa SSW 1.4 km/h 1.6 km/h 78% 0.0 mm 19 W/m2
20:32 13.8 °C 10.2 °C 1001.0 hPa Calm     79% 0.0 mm 14 W/m2
20:37 13.7 °C 10.1 °C 1001.0 hPa Calm   1.6 km/h 79% 0.0 mm 9 W/m2
20:42 13.5 °C 10.1 °C 1000.7 hPa Calm     80% 0.0 mm 5 W/m2
20:47 13.4 °C 10 °C 1000.7 hPa SSW 1.4 km/h 4.8 km/h 80% 0.2 mm 0 W/m2
20:52 13.2 °C 10.2 °C 1001.0 hPa West 4.7 km/h 4.8 km/h 82% 3.0 mm 0 W/m2
20:57 12.8 °C 10.2 °C 1001.0 hPa NE 1.4 km/h 3.2 km/h 84% 3.6 mm 0 W/m2
21:02 12.4 °C 10.1 °C 1001.4 hPa WNW 3.2 km/h 4.8 km/h 86% 3.6 mm 0 W/m2
21:07 12.3 °C 10.2 °C 1001.4 hPa NW 6.4 km/h 9.7 km/h 87% 3.8 mm 0 W/m2
21:12 12.3 °C 10.4 °C 1001.4 hPa Calm   3.2 km/h 88% 3.8 mm 0 W/m2
21:17 12.2 °C 10.3 °C 1001.7 hPa WNW 7.9 km/h 12.9 km/h 88% 4.1 mm 0 W/m2
21:22 11.9 °C 9.8 °C 1001.7 hPa West 6.4 km/h 12.9 km/h 87% 4.6 mm 0 W/m2
21:27 11.7 °C 9.6 °C 1001.7 hPa NW 3.2 km/h 6.4 km/h 87% 5.8 mm 0 W/m2
21:32 11.3 °C 9.2 °C 1001.4 hPa Calm   11.3 km/h 87% 6.1 mm 0 W/m2
21:37 10.9 °C 9 °C 1001.7 hPa Calm   6.4 km/h 88% 6.1 mm 0 W/m2
21:42 10.7 °C 8.8 °C 1002.0 hPa West 6.4 km/h 11.3 km/h 88% 6.1 mm 0 W/m2
21:47 10.6 °C 8.9 °C 1002.0 hPa West 1.4 km/h 3.2 km/h 89% 6.1 mm 0 W/m2
21:52 10.5 °C 8.8 °C 1002.0 hPa West 1.4 km/h 3.2 km/h 89% 3.3 mm 0 W/m2
21:57 10.4 °C 8.8 °C 1002.0 hPa Calm   3.2 km/h 90% 2.5 mm 0 W/m2
22:02 10.3 °C 8.7 °C 1002.0 hPa NW 3.2 km/h 3.2 km/h 90% 2.5 mm 0 W/m2
22:07 10.3 °C 8.9 °C 1002.4 hPa West 4.7 km/h 6.4 km/h 91% 2.3 mm 0 W/m2
22:12 10.2 °C 8.8 °C 1002.4 hPa West 4.7 km/h 4.8 km/h 91% 2.3 mm 0 W/m2
22:17 10.1 °C 8.9 °C 1002.4 hPa Calm   1.6 km/h 92% 2.3 mm 0 W/m2
22:22 10.1 °C 8.9 °C 1002.4 hPa Calm     92% 1.8 mm 0 W/m2
22:27 10 °C 8.8 °C 1002.4 hPa Calm   3.2 km/h 92% 0.5 mm 0 W/m2
22:32 10.1 °C 9 °C 1002.4 hPa ENE 1.4 km/h 3.2 km/h 93% 0.5 mm 0 W/m2
22:37 10.1 °C 9 °C 1002.4 hPa Calm   1.6 km/h 93% 0.5 mm 0 W/m2
22:42 10.2 °C 9.1 °C 1002.4 hPa Calm     93% 0.2 mm 0 W/m2
22:47 10.2 °C 9.1 °C 1002.4 hPa East 1.4 km/h 1.6 km/h 93% 0.2 mm 0 W/m2
22:52 10.2 °C 9.1 °C 1002.4 hPa East 1.4 km/h 3.2 km/h 93% 0.2 mm 0 W/m2
22:57 10.1 °C 9 °C 1002.4 hPa Calm   1.6 km/h 93% 0.2 mm 0 W/m2
23:02 10.1 °C 9 °C 1002.4 hPa Calm   3.2 km/h 93% 0.2 mm 0 W/m2
23:07 10.1 °C 9.2 °C 1002.4 hPa Calm   3.2 km/h 94% 0.2 mm 0 W/m2
23:12 10.1 °C 9.2 °C 1002.4 hPa Calm   1.6 km/h 94% 0.2 mm 0 W/m2
23:17 10.1 °C 9 °C 1002.4 hPa North 3.2 km/h 3.2 km/h 93% 0.0 mm 0 W/m2
23:22 10.1 °C 9.2 °C 1002.4 hPa Calm   3.2 km/h 94% 0.0 mm 0 W/m2
23:27 10.2 °C 9.1 °C 1002.4 hPa Calm   3.2 km/h 93% 0.0 mm 0 W/m2
23:32 10.2 °C 9.1 °C 1002.7 hPa Calm   1.6 km/h 93% 0.0 mm 0 W/m2
23:37 10.2 °C 9.1 °C 1002.7 hPa Calm   6.4 km/h 93% 0.0 mm 0 W/m2
23:42 10.2 °C 9.1 °C 1002.7 hPa WNW 3.2 km/h 14.5 km/h 93% 0.0 mm 0 W/m2
23:47 10.2 °C 9 °C 1002.7 hPa NW 3.2 km/h 6.4 km/h 92% 0.0 mm 0 W/m2
23:52 10.3 °C 9.1 °C 1002.7 hPa WSW 1.4 km/h 12.9 km/h 92% 0.0 mm 0 W/m2
23:57 10.3 °C 9.1 °C 1002.7 hPa West 3.2 km/h 4.8 km/h 92% 0.0 mm 0 W/m2
Juneau County Weather
Compliments of Weather Underground - 4 mb